createdAt,value
2018-12-25T00:01:40.923Z,101599.48
2018-12-25T00:04:46.823Z,101599.86
2018-12-25T00:07:52.696Z,101588.86
2018-12-25T00:10:58.773Z,101586.72
2018-12-25T00:14:06.177Z,101582.08
2018-12-25T00:17:12.217Z,101576.60
2018-12-25T00:20:18.104Z,101575.83
2018-12-25T00:23:23.989Z,101580.35
2018-12-25T00:26:29.845Z,101580.58
2018-12-25T00:29:35.722Z,101585.16
2018-12-25T00:32:41.775Z,101588.69
2018-12-25T00:35:47.653Z,101591.69
2018-12-25T00:38:53.590Z,101589.64
2018-12-25T00:41:59.569Z,101596.76
2018-12-25T00:45:05.587Z,101608.98
2018-12-25T00:48:11.535Z,101621.46
2018-12-25T00:51:17.408Z,101618.55
2018-12-25T00:54:23.310Z,101617.05
2018-12-25T00:57:29.193Z,101623.83
2018-12-25T01:00:35.112Z,101622.73
2018-12-25T01:03:40.999Z,101617.63
2018-12-25T01:06:46.999Z,101614.05
2018-12-25T01:09:52.845Z,101609.84
2018-12-25T01:12:58.749Z,101595.70
2018-12-25T01:16:07.010Z,101600.13
2018-12-25T01:19:12.863Z,101600.04
2018-12-25T01:22:18.764Z,101601.89
2018-12-25T01:25:24.608Z,101606.37
2018-12-25T01:28:30.670Z,101619.55
2018-12-25T01:31:36.637Z,101612.31
2018-12-25T01:34:42.506Z,101617.88
2018-12-25T01:37:48.346Z,101621.11
2018-12-25T01:40:54.241Z,101620.75
2018-12-25T01:44:00.086Z,101628.39
2018-12-25T01:47:05.982Z,101622.56
2018-12-25T01:50:11.889Z,101615.84
2018-12-25T01:53:17.830Z,101615.02
2018-12-25T01:56:23.751Z,101616.94
2018-12-25T01:59:29.667Z,101617.81
2018-12-25T02:02:35.609Z,101615.22
2018-12-25T02:05:44.509Z,101613.31
2018-12-25T02:08:50.342Z,101608.61
2018-12-25T02:11:56.275Z,101612.71
2018-12-25T02:15:06.124Z,101616.08
2018-12-25T02:18:12.046Z,101621.48
2018-12-25T02:21:17.971Z,101621.31
2018-12-25T02:24:23.757Z,101625.70
2018-12-25T02:27:29.643Z,101621.23
2018-12-25T02:30:35.508Z,101626.34
2018-12-25T02:33:41.500Z,101619.95
2018-12-25T02:36:47.348Z,101616.91
2018-12-25T02:39:53.364Z,101619.21
2018-12-25T02:42:59.361Z,101625.33
2018-12-25T02:46:05.291Z,101632.66
2018-12-25T02:49:11.153Z,101631.69
2018-12-25T02:52:17.135Z,101627.66
2018-12-25T02:55:22.953Z,101622.86
2018-12-25T02:58:28.892Z,101622.64
2018-12-25T03:01:34.860Z,101620.77
2018-12-25T03:04:40.750Z,101620.16
2018-12-25T03:07:46.669Z,101623.01
2018-12-25T03:10:52.637Z,101621.21
2018-12-25T03:13:58.472Z,101611.88
2018-12-25T03:17:04.299Z,101615.75
2018-12-25T03:20:10.242Z,101627.12
2018-12-25T03:23:16.232Z,101623.70
2018-12-25T03:26:22.200Z,101632.59
2018-12-25T03:29:28.182Z,101627.00
2018-12-25T03:32:34.076Z,101622.58
2018-12-25T03:35:39.935Z,101619.15
2018-12-25T03:38:45.829Z,101606.20
2018-12-25T03:41:51.722Z,101593.72
2018-12-25T03:44:57.780Z,101595.72
2018-12-25T03:48:03.710Z,101591.95
2018-12-25T03:51:09.759Z,101594.67
2018-12-25T03:54:15.623Z,101584.17
2018-12-25T03:57:21.484Z,101582.17
2018-12-25T04:00:27.463Z,101582.56
2018-12-25T04:03:33.431Z,101587.78
2018-12-25T04:06:39.524Z,101586.62
2018-12-25T04:09:45.324Z,101581.24
2018-12-25T04:12:51.197Z,101568.56
2018-12-25T04:15:57.020Z,101569.69
2018-12-25T04:19:02.906Z,101570.33
2018-12-25T04:22:08.770Z,101574.30
2018-12-25T04:25:14.682Z,101572.01
2018-12-25T04:28:20.637Z,101573.33
2018-12-25T04:31:26.619Z,101573.80
2018-12-25T04:34:32.536Z,101575.97
2018-12-25T04:37:38.412Z,101579.75
2018-12-25T04:40:44.285Z,101571.80
2018-12-25T04:43:50.295Z,101573.13
2018-12-25T04:46:56.199Z,101573.39
2018-12-25T04:50:02.119Z,101561.16
2018-12-25T04:53:08.037Z,101551.70
2018-12-25T04:56:13.880Z,101562.19
2018-12-25T04:59:19.742Z,101568.40
2018-12-25T05:02:25.603Z,101567.95
2018-12-25T05:05:31.577Z,101572.37
2018-12-25T05:08:37.667Z,101584.14
2018-12-25T05:11:43.581Z,101584.83
2018-12-25T05:14:49.496Z,101585.04
2018-12-25T05:17:55.462Z,101591.97
2018-12-25T05:21:01.466Z,101607.77
2018-12-25T05:24:07.356Z,101602.22
2018-12-25T05:27:13.210Z,101588.71
2018-12-25T05:30:19.071Z,101589.89
2018-12-25T05:33:25.080Z,101578.89
2018-12-25T05:36:31.219Z,101580.76
2018-12-25T05:39:37.103Z,101575.27
2018-12-25T05:42:42.965Z,101598.50
2018-12-25T05:45:48.885Z,101591.57
2018-12-25T05:48:54.862Z,101604.91
2018-12-25T05:52:00.759Z,101589.19
2018-12-25T05:55:06.749Z,101596.75
2018-12-25T05:58:12.636Z,101597.26
2018-12-25T06:01:18.442Z,101601.56
2018-12-25T06:04:24.255Z,101592.41
2018-12-25T06:07:30.220Z,101595.14
2018-12-25T06:10:36.231Z,101598.79
2018-12-25T06:13:43.188Z,101579.52
2018-12-25T06:16:49.033Z,101572.83
2018-12-25T06:19:54.856Z,101575.75
2018-12-25T06:23:00.886Z,101568.16
2018-12-25T06:26:06.936Z,101566.23
2018-12-25T06:29:12.894Z,101568.77
2018-12-25T06:32:18.712Z,101570.15
2018-12-25T06:35:24.634Z,101580.78
2018-12-25T06:38:30.563Z,101591.50
2018-12-25T06:41:36.452Z,101595.41
2018-12-25T06:44:42.353Z,101581.75
2018-12-25T06:47:48.490Z,101594.28
2018-12-25T06:50:54.375Z,101595.28
2018-12-25T06:54:00.331Z,101590.86
2018-12-25T06:57:06.348Z,101601.55
2018-12-25T07:00:13.326Z,101592.69
2018-12-25T07:03:19.355Z,101582.30
2018-12-25T07:06:25.525Z,101574.73
2018-12-25T07:09:31.416Z,101572.30
2018-12-25T07:12:56.493Z,101581.36
2018-12-25T07:16:02.335Z,101578.80
2018-12-25T07:19:08.275Z,101580.31
2018-12-25T07:22:14.299Z,101569.04
2018-12-25T07:25:20.168Z,101566.51
2018-12-25T07:28:26.029Z,101554.42
2018-12-25T07:31:31.930Z,101553.00
2018-12-25T07:34:37.970Z,101550.80
2018-12-25T07:37:43.984Z,101544.56
2018-12-25T07:40:49.952Z,101545.89
2018-12-25T07:43:55.932Z,101547.55
2018-12-25T07:47:01.806Z,101543.70
2018-12-25T07:50:08.373Z,101531.55
2018-12-25T07:53:14.397Z,101522.88
2018-12-25T07:56:20.360Z,101520.63
2018-12-25T07:59:26.197Z,101529.51
2018-12-25T08:02:32.251Z,101545.10
2018-12-25T08:05:38.237Z,101549.45
2018-12-25T08:08:44.260Z,101548.28
2018-12-25T08:11:50.131Z,101543.98
2018-12-25T08:14:56.101Z,101551.68
2018-12-25T08:18:02.291Z,101544.83
2018-12-25T08:21:08.206Z,101540.45
2018-12-25T08:24:14.183Z,101528.91
2018-12-25T08:27:20.133Z,101524.31
2018-12-25T08:30:26.251Z,101517.09
2018-12-25T08:33:32.180Z,101530.41
2018-12-25T08:36:41.034Z,101536.02
2018-12-25T08:39:46.982Z,101536.03
2018-12-25T08:42:53.107Z,101533.05
2018-12-25T08:45:59.213Z,101532.14
2018-12-25T08:49:05.145Z,101539.59
2018-12-25T08:52:11.322Z,101553.72
2018-12-25T08:55:17.312Z,101551.35
2018-12-25T08:58:23.390Z,101548.47
2018-12-25T09:01:29.260Z,101557.54
2018-12-25T09:04:35.252Z,101565.91
2018-12-25T09:07:41.151Z,101560.58
2018-12-25T09:10:50.195Z,101561.59
2018-12-25T09:13:56.175Z,101561.91
2018-12-25T09:17:02.135Z,101564.94
2018-12-25T09:20:08.170Z,101568.85
2018-12-25T09:23:14.199Z,101571.91
2018-12-25T09:26:20.370Z,101572.37
2018-12-25T09:29:26.388Z,101580.63
2018-12-25T09:32:32.402Z,101581.14
2018-12-25T09:35:38.471Z,101580.45
2018-12-25T09:38:44.392Z,101585.23
2018-12-25T09:41:50.478Z,101577.50
2018-12-25T09:44:56.633Z,101572.16
2018-12-25T09:48:02.575Z,101567.25
2018-12-25T09:51:08.652Z,101566.14
2018-12-25T09:54:14.793Z,101555.99
2018-12-25T09:57:20.865Z,101557.76
2018-12-25T10:00:26.933Z,101555.61
2018-12-25T10:03:32.941Z,101552.61
2018-12-25T10:06:38.890Z,101560.09
2018-12-25T10:09:45.238Z,101563.47
2018-12-25T10:12:51.118Z,101556.73
2018-12-25T10:15:57.290Z,101550.33
2018-12-25T10:19:03.348Z,101546.58
2018-12-25T10:22:09.272Z,101541.15
2018-12-25T10:25:15.246Z,101544.52
2018-12-25T10:28:21.215Z,101543.67
2018-12-25T10:31:27.265Z,101544.54
2018-12-25T10:34:33.298Z,101533.88
2018-12-25T10:37:41.607Z,101523.92
2018-12-25T10:40:47.579Z,101514.63
2018-12-25T10:43:53.528Z,101515.47
2018-12-25T10:46:59.447Z,101507.31
2018-12-25T10:50:05.973Z,101498.63
2018-12-25T10:53:12.630Z,101500.81
2018-12-25T10:56:37.594Z,101504.13
2018-12-25T10:59:43.473Z,101513.82
2018-12-25T11:02:49.354Z,101515.73
2018-12-25T11:05:55.398Z,101538.89
2018-12-25T11:09:01.271Z,101527.09
2018-12-25T11:12:07.280Z,101520.89
2018-12-25T11:15:13.173Z,101526.62
2018-12-25T11:18:19.250Z,101525.42
2018-12-25T11:21:25.196Z,101523.48
2018-12-25T11:24:31.097Z,101515.93
2018-12-25T11:27:36.921Z,101507.71
2018-12-25T11:30:42.899Z,101493.70
2018-12-25T11:33:48.835Z,101497.84
2018-12-25T11:36:57.534Z,101493.18
2018-12-25T11:40:03.418Z,101483.45
2018-12-25T11:43:09.422Z,101488.41
2018-12-25T11:46:15.535Z,101492.30
2018-12-25T11:49:21.426Z,101496.64
2018-12-25T11:52:28.444Z,101489.44
2018-12-25T11:55:34.781Z,101488.34
2018-12-25T11:58:40.656Z,101487.65
2018-12-25T12:01:46.503Z,101490.93
2018-12-25T12:04:52.421Z,101497.25
2018-12-25T12:07:58.483Z,101505.64
2018-12-25T12:11:07.551Z,101508.17
2018-12-25T12:14:13.440Z,101505.04
2018-12-25T12:17:19.615Z,101506.95
2018-12-25T12:20:25.563Z,101507.67
2018-12-25T12:23:31.578Z,101511.87
2018-12-25T12:26:40.499Z,101493.38
2018-12-25T12:29:46.538Z,101493.38
2018-12-25T12:32:52.647Z,101487.61
2018-12-25T12:35:58.908Z,101483.81
2018-12-25T12:39:06.820Z,101480.45
2018-12-25T12:42:15.739Z,101481.79
2018-12-25T12:45:21.663Z,101475.38
2018-12-25T12:48:27.478Z,101479.28
2018-12-25T12:51:33.405Z,101482.56
2018-12-25T12:54:39.300Z,101489.53
2018-12-25T12:57:45.301Z,101483.83
2018-12-25T13:00:51.218Z,101503.17
2018-12-25T13:03:57.107Z,101494.85
2018-12-25T13:07:02.987Z,101505.58
2018-12-25T13:10:09.733Z,101500.81
2018-12-25T13:13:15.610Z,101515.13
2018-12-25T13:16:21.610Z,101514.50
2018-12-25T13:19:27.519Z,101514.91
2018-12-25T13:22:33.329Z,101518.55
2018-12-25T13:25:39.583Z,101542.64
2018-12-25T13:28:45.446Z,101544.47
2018-12-25T13:31:51.392Z,101544.09
2018-12-25T13:34:57.670Z,101555.05
2018-12-25T13:38:03.748Z,101563.77
2018-12-25T13:41:09.638Z,101556.84
2018-12-25T13:44:15.671Z,101556.45
2018-12-25T13:47:21.691Z,101555.87
2018-12-25T13:50:27.595Z,101566.34
2018-12-25T13:53:33.528Z,101564.41
2018-12-25T13:56:39.471Z,101563.02
2018-12-25T13:59:45.383Z,101566.28
2018-12-25T14:02:51.240Z,101566.77
2018-12-25T14:05:57.080Z,101560.36
2018-12-25T14:09:03.585Z,101567.00
2018-12-25T14:12:09.497Z,101568.95
2018-12-25T14:15:15.518Z,101571.08
2018-12-25T14:18:21.390Z,101573.11
2018-12-25T14:21:27.286Z,101569.66
2018-12-25T14:24:33.182Z,101569.22
2018-12-25T14:27:39.064Z,101575.95
2018-12-25T14:30:44.982Z,101572.37
2018-12-25T14:33:50.972Z,101575.51
2018-12-25T14:36:56.835Z,101572.73
2018-12-25T14:40:02.776Z,101562.64
2018-12-25T14:43:08.684Z,101565.44
2018-12-25T14:46:14.651Z,101570.16
2018-12-25T14:49:20.757Z,101578.84
2018-12-25T14:52:26.635Z,101582.32
2018-12-25T14:55:32.488Z,101577.46
2018-12-25T14:58:38.388Z,101579.59
2018-12-25T15:01:44.353Z,101571.86
2018-12-25T15:04:50.276Z,101572.22
2018-12-25T15:07:56.140Z,101576.72
2018-12-25T15:11:02.042Z,101571.26
2018-12-25T15:14:07.799Z,101578.05
2018-12-25T15:17:13.666Z,101580.46
2018-12-25T15:20:19.589Z,101587.72
2018-12-25T15:23:28.306Z,101581.30
2018-12-25T15:26:33.230Z,101588.11
2018-12-25T15:29:39.080Z,101596.82
2018-12-25T15:32:44.974Z,101600.81
2018-12-25T15:35:50.851Z,101607.38
2018-12-25T15:38:56.792Z,101607.97
2018-12-25T15:42:02.689Z,101607.23
2018-12-25T15:45:09.751Z,101601.30
2018-12-25T15:48:15.707Z,101602.14
2018-12-25T15:51:21.685Z,101606.14
2018-12-25T15:54:27.635Z,101594.12
2018-12-25T15:57:33.574Z,101601.29
2018-12-25T16:00:39.501Z,101597.55
2018-12-25T16:03:45.409Z,101595.84
2018-12-25T16:06:51.404Z,101598.51
2018-12-25T16:09:57.309Z,101595.84
2018-12-25T16:13:03.318Z,101594.76
2018-12-25T16:16:09.280Z,101592.83
2018-12-25T16:19:15.267Z,101585.33
2018-12-25T16:22:21.133Z,101580.84
2018-12-25T16:25:27.064Z,101570.55
2018-12-25T16:28:33.013Z,101568.37
2018-12-25T16:31:38.882Z,101567.04
2018-12-25T16:34:44.877Z,101568.96
2018-12-25T16:37:50.741Z,101578.77
2018-12-25T16:40:56.716Z,101577.78
2018-12-25T16:44:02.592Z,101571.62
2018-12-25T16:47:08.620Z,101571.12
2018-12-25T16:50:14.537Z,101567.86
2018-12-25T16:53:20.436Z,101570.38
2018-12-25T16:56:26.406Z,101570.63
2018-12-25T16:59:32.513Z,101560.22
2018-12-25T17:02:38.380Z,101563.47
2018-12-25T17:05:44.391Z,101565.80
2018-12-25T17:08:50.343Z,101563.13
2018-12-25T17:11:56.314Z,101563.47
2018-12-25T17:15:02.231Z,101558.28
2018-12-25T17:18:09.581Z,101556.36
2018-12-25T17:21:15.614Z,101555.47
2018-12-25T17:24:21.542Z,101560.09
2018-12-25T17:27:27.360Z,101558.84
2018-12-25T17:30:33.277Z,101557.42
2018-12-25T17:33:39.257Z,101555.70
2018-12-25T17:36:45.131Z,101560.53
2018-12-25T17:39:51.085Z,101566.58
2018-12-25T17:42:56.838Z,101562.69
2018-12-25T17:46:02.724Z,101563.91
2018-12-25T17:49:08.547Z,101562.92
2018-12-25T17:52:14.523Z,101556.54
2018-12-25T17:55:20.426Z,101553.87
2018-12-25T17:58:26.380Z,101565.13
2018-12-25T18:01:32.307Z,101559.05
2018-12-25T18:04:38.329Z,101561.80
2018-12-25T18:07:44.255Z,101562.78
2018-12-25T18:10:50.235Z,101568.23
2018-12-25T18:13:56.161Z,101567.20
2018-12-25T18:17:02.069Z,101573.96
2018-12-25T18:20:08.312Z,101565.79
2018-12-25T18:23:14.283Z,101576.98
2018-12-25T18:26:20.257Z,101569.80
2018-12-25T18:29:26.136Z,101569.56
2018-12-25T18:32:32.015Z,101576.92
2018-12-25T18:35:38.086Z,101576.19
2018-12-25T18:38:44.206Z,101577.95
2018-12-25T18:41:50.054Z,101581.61
2018-12-25T18:44:56.036Z,101580.07
2018-12-25T18:48:01.938Z,101582.37
2018-12-25T18:51:08.002Z,101584.78
2018-12-25T18:54:15.611Z,101593.85
2018-12-25T18:57:22.074Z,101587.69
2018-12-25T19:00:28.230Z,101591.32
2018-12-25T19:03:34.118Z,101588.59
2018-12-25T19:06:40.054Z,101585.67
2018-12-25T19:09:46.027Z,101576.98
2018-12-25T19:12:52.385Z,101580.96
2018-12-25T19:16:03.462Z,101582.98
2018-12-25T19:19:11.424Z,101582.06
2018-12-25T19:22:17.481Z,101582.66
2018-12-25T19:25:23.505Z,101575.75
2018-12-25T19:28:29.485Z,101579.00
2018-12-25T19:31:38.447Z,101581.55
2018-12-25T19:34:44.379Z,101583.50
2018-12-25T19:37:50.340Z,101588.38
2018-12-25T19:40:56.404Z,101588.73
2018-12-25T19:44:02.772Z,101579.07
2018-12-25T19:47:08.747Z,101582.42
2018-12-25T19:50:14.662Z,101571.50
2018-12-25T19:53:20.694Z,101567.74
2018-12-25T19:56:26.635Z,101561.81
2018-12-25T19:59:32.556Z,101554.59
2018-12-25T20:02:39.040Z,101552.16
2018-12-25T20:06:44.113Z,101557.92
2018-12-25T20:11:06.361Z,101557.64
2018-12-25T20:15:15.183Z,101554.98
2018-12-25T20:19:08.038Z,101558.25
2018-12-25T20:22:58.526Z,101560.42
2018-12-25T20:26:48.387Z,101551.64
2018-12-25T20:31:24.735Z,101549.53
2018-12-25T20:35:32.781Z,101547.97
2018-12-25T20:39:52.882Z,101545.45
2018-12-25T20:44:21.108Z,101541.28
2018-12-25T20:48:22.722Z,101538.69
2018-12-25T20:52:39.323Z,101534.58
2018-12-25T20:56:39.435Z,101538.20
2018-12-25T21:00:38.932Z,101534.00
2018-12-25T21:04:32.603Z,101530.36
2018-12-25T21:08:39.069Z,101528.63
2018-12-25T21:12:49.605Z,101523.71
2018-12-25T21:17:06.141Z,101522.52
2018-12-25T21:21:03.785Z,101518.09
2018-12-25T21:25:09.680Z,101515.95
2018-12-25T21:28:08.013Z,101512.73
2018-12-25T21:31:14.266Z,101502.62
2018-12-25T21:34:20.507Z,101502.81
2018-12-25T21:37:26.485Z,101503.03
2018-12-25T21:40:32.792Z,101502.16
2018-12-25T21:43:38.803Z,101503.30
2018-12-25T21:46:44.776Z,101493.42
2018-12-25T21:49:52.487Z,101489.36
2018-12-25T21:52:59.073Z,101492.38
2018-12-25T21:56:05.403Z,101488.25
2018-12-25T21:59:12.073Z,101492.52
2018-12-25T22:02:18.483Z,101496.89
2018-12-25T22:05:24.713Z,101493.12
2018-12-25T22:08:30.599Z,101499.96
2018-12-25T22:11:36.899Z,101503.36
2018-12-25T22:14:42.871Z,101513.09
2018-12-25T22:17:48.853Z,101505.27
2018-12-25T22:20:55.105Z,101504.94
2018-12-25T22:24:01.053Z,101506.56
2018-12-25T22:27:07.193Z,101500.30
2018-12-25T22:30:13.380Z,101510.96
2018-12-25T22:33:19.445Z,101504.87
2018-12-25T22:36:25.461Z,101503.31
2018-12-25T22:39:31.283Z,101498.78
2018-12-25T22:42:37.132Z,101490.20
2018-12-25T22:45:43.006Z,101492.92
2018-12-25T22:48:49.181Z,101486.53
2018-12-25T22:51:55.162Z,101478.01
2018-12-25T22:55:01.117Z,101480.09
2018-12-25T22:58:07.026Z,101487.28
2018-12-25T23:01:12.963Z,101477.92
2018-12-25T23:04:18.893Z,101479.81
2018-12-25T23:07:24.903Z,101483.99
2018-12-25T23:10:30.846Z,101485.23
2018-12-25T23:13:36.736Z,101488.98
2018-12-25T23:16:42.798Z,101495.79
2018-12-25T23:19:48.716Z,101482.73
2018-12-25T23:22:54.697Z,101490.78
2018-12-25T23:26:00.730Z,101494.47
2018-12-25T23:29:07.047Z,101494.47
2018-12-25T23:32:13.119Z,101494.27
2018-12-25T23:35:18.974Z,101484.42
2018-12-25T23:38:24.827Z,101488.80
2018-12-25T23:41:30.906Z,101496.36
2018-12-25T23:44:36.877Z,101484.37
2018-12-25T23:47:42.785Z,101484.09
2018-12-25T23:50:48.805Z,101474.05
2018-12-25T23:53:54.744Z,101480.09
2018-12-25T23:57:00.618Z,101476.31
